Time;durP1;ratioP1;P1;durP2;ratioP2;P2;SDS_P1;SDS_P2;PMS_P1;PMS_P2;Temp;Humidity;BMP_temperature;BMP_pressure;BME280_temperature;BME280_humidity;BME280_pressure;Samples;Min_cycle;Max_cycle;Signal;HPM_P1;HPM_P2
2021/01/31 00:00:45;;;;;;;15.73;8.57;;;;;;;-0.23;97.39;99434.41;5085473;28;20069;-56
2021/01/31 00:03:15;;;;;;;18.17;9.18;;;;;;;-0.26;97.45;99432.03;5080273;28;20041;-55
2021/01/31 00:05:43;;;;;;;16.98;9.13;;;;;;;-0.25;97.83;99425.00;5078256;28;20136;-56
2021/01/31 00:08:12;;;;;;;22.08;8.48;;;;;;;-0.18;97.33;99421.72;5086699;28;20044;-54
2021/01/31 00:10:39;;;;;;;15.07;8.43;;;;;;;-0.20;97.21;99431.53;5079657;28;20051;-56
2021/01/31 00:13:08;;;;;;;16.65;8.95;;;;;;;-0.24;97.21;99434.50;5086790;28;20047;-56
2021/01/31 00:15:37;;;;;;;15.90;8.80;;;;;;;-0.32;96.99;99426.47;5077375;28;20309;-54
2021/01/31 00:18:04;;;;;;;18.02;8.60;;;;;;;-0.40;97.64;99437.59;5081700;28;20036;-56
2021/01/31 00:20:33;;;;;;;19.00;8.70;;;;;;;-0.49;97.84;99439.19;5084247;28;20396;-56
2021/01/31 00:23:00;;;;;;;18.60;9.18;;;;;;;-0.56;98.08;99448.50;5080822;28;20438;-55
2021/01/31 00:25:28;;;;;;;19.15;9.70;;;;;;;-0.65;98.14;99454.47;5082992;28;20067;-56
2021/01/31 00:27:55;;;;;;;19.85;9.13;;;;;;;-0.48;97.92;99456.59;5080278;28;20036;-55
2021/01/31 00:30:26;;;;;;;16.45;8.90;;;;;;;-0.54;98.08;99457.06;5079971;28;20056;-54
2021/01/31 00:32:53;;;;;;;20.67;9.13;;;;;;;-0.45;97.61;99456.34;5081239;28;20370;-52
2021/01/31 00:35:24;;;;;;;21.33;10.23;;;;;;;-0.46;98.24;99443.34;5079134;28;20099;-54
2021/01/31 00:37:51;;;;;;;16.48;9.20;;;;;;;-0.41;97.67;99468.25;5082300;28;20047;-51
2021/01/31 00:40:19;;;;;;;21.25;9.82;;;;;;;-0.51;97.86;99467.34;5080961;28;20039;-56
2021/01/31 00:42:50;;;;;;;17.80;8.85;;;;;;;-0.49;98.13;99468.03;5083478;28;20097;-56
2021/01/31 00:45:20;;;;;;;15.93;8.20;;;;;;;-0.36;97.63;99465.22;5076163;28;20062;-54
2021/01/31 00:47:47;;;;;;;20.00;7.80;;;;;;;-0.45;97.47;99468.63;5084317;28;20044;-56
2021/01/31 00:50:15;;;;;;;14.57;7.63;;;;;;;-0.48;97.77;99474.94;5081695;28;20041;-56
2021/01/31 00:52:42;;;;;;;12.45;7.45;;;;;;;-0.39;97.42;99476.81;5079721;28;20048;-54
2021/01/31 00:55:10;;;;;;;19.45;9.00;;;;;;;-0.39;97.45;99476.81;5081882;28;20451;-56
2021/01/31 00:57:36;;;;;;;18.52;7.97;;;;;;;-0.32;96.72;99471.91;5077827;28;20063;-56
2021/01/31 01:00:13;;;;;;;14.52;8.27;;;;;;;-0.35;97.03;99466.91;5084779;28;20044;-55
2021/01/31 01:02:40;;;;;;;14.95;7.53;;;;;;;-0.38;96.77;99477.66;5073921;28;20048;-57
2021/01/31 01:05:08;;;;;;;19.77;11.20;;;;;;;-0.36;96.56;99476.56;5079262;28;20039;-55
2021/01/31 01:07:35;;;;;;;14.73;7.85;;;;;;;-0.30;96.19;99477.84;5081644;28;20053;-55
2021/01/31 01:10:05;;;;;;;13.57;7.20;;;;;;;-0.33;96.29;99472.84;5080017;28;21149;-56
2021/01/31 01:12:35;;;;;;;17.20;9.10;;;;;;;-0.39;96.37;99474.19;5088647;28;20842;-56
2021/01/31 01:15:02;;;;;;;17.55;7.93;;;;;;;-0.35;96.01;99480.84;5078051;28;20044;-53
2021/01/31 01:17:30;;;;;;;14.82;7.65;;;;;;;-0.43;96.22;99477.19;5081687;28;20074;-55
2021/01/31 01:19:57;;;;;;;12.05;5.80;;;;;;;-0.42;96.44;99473.63;5079703;28;20044;-56
2021/01/31 01:22:24;;;;;;;13.95;7.03;;;;;;;-0.41;96.10;99486.59;5079152;28;20043;-53
2021/01/31 01:24:52;;;;;;;17.95;8.93;;;;;;;-0.48;96.28;99488.06;5081802;28;20048;-56
2021/01/31 01:27:20;;;;;;;17.35;8.52;;;;;;;-0.58;96.32;99484.50;5075298;28;20043;-55
2021/01/31 01:29:47;;;;;;;16.25;7.80;;;;;;;-0.54;96.45;99488.53;5081982;28;20428;-56
2021/01/31 01:32:14;;;;;;;17.00;9.35;;;;;;;-0.66;96.89;99494.78;5081520;28;20036;-55
2021/01/31 01:34:42;;;;;;;18.83;9.60;;;;;;;-0.88;97.35;99491.25;5065674;28;20336;-54
2021/01/31 01:37:09;;;;;;;15.07;8.52;;;;;;;-0.81;97.55;99488.97;5079082;28;20051;-55
2021/01/31 01:39:36;;;;;;;17.85;9.15;;;;;;;-0.87;97.37;99493.75;5082498;28;20055;-56
2021/01/31 01:42:05;;;;;;;16.95;9.35;;;;;;;-1.05;98.05;99492.56;5079288;28;20048;-56
2021/01/31 01:44:33;;;;;;;18.70;9.40;;;;;;;-1.09;98.41;99499.88;5077830;28;20029;-56
2021/01/31 01:47:02;;;;;;;18.77;9.63;;;;;;;-1.10;99.09;99492.13;5078882;28;20094;-54
2021/01/31 01:49:33;;;;;;;18.08;9.20;;;;;;;-1.06;98.97;99480.47;5079067;28;20048;-54
2021/01/31 01:52:03;;;;;;;21.33;10.27;;;;;;;-0.98;98.69;99485.91;5084451;28;20040;-55
2021/01/31 01:54:33;;;;;;;16.98;9.75;;;;;;;-1.07;98.89;99492.69;5076906;28;20032;-51
2021/01/31 01:57:03;;;;;;;21.27;10.85;;;;;;;-1.23;99.44;99479.97;5079268;28;20041;-57
2021/01/31 01:59:30;;;;;;;21.35;11.30;;;;;;;-1.31;99.16;99484.97;5087984;28;20040;-54
2021/01/31 02:02:06;;;;;;;19.13;10.25;;;;;;;-1.32;99.51;99483.34;5081402;28;20043;-56
2021/01/31 02:04:33;;;;;;;18.75;10.30;;;;;;;-1.16;99.84;99482.97;5080467;28;20044;-55
2021/01/31 02:07:01;;;;;;;20.48;11.05;;;;;;;-1.23;99.66;99487.03;5083276;28;20040;-55
2021/01/31 02:09:28;;;;;;;22.20;10.93;;;;;;;-1.19;99.88;99485.84;5088336;28;20033;-56
2021/01/31 02:11:57;;;;;;;22.85;12.00;;;;;;;-1.29;99.72;99479.63;5083478;28;20039;-56
2021/01/31 02:14:25;;;;;;;18.88;9.18;;;;;;;-1.37;99.69;99480.22;5080803;28;20051;-56
2021/01/31 02:16:54;;;;;;;21.83;9.85;;;;;;;-1.25;99.44;99468.81;5083567;28;20431;-56
2021/01/31 02:19:34;;;;;;;18.88;8.05;;;;;;;-1.28;99.71;99465.56;5081197;28;20058;-55
2021/01/31 02:22:28;;;;;;;19.73;10.25;;;;;;;-1.27;99.70;99473.31;5085593;28;20040;-55
2021/01/31 02:25:24;;;;;;;20.90;9.50;;;;;;;-1.34;99.68;99477.38;5084121;28;20044;-56
2021/01/31 02:28:26;;;;;;;20.15;9.73;;;;;;;-1.39;99.88;99480.34;5082382;28;20443;-56
2021/01/31 02:31:10;;;;;;;20.00;8.23;;;;;;;-1.36;99.87;99483.66;5045484;28;20055;-55
2021/01/31 02:33:45;;;;;;;19.20;9.15;;;;;;;-1.41;99.98;99484.84;5089710;28;20056;-57
2021/01/31 02:36:19;;;;;;;21.10;10.07;;;;;;;-1.45;100.00;99475.56;5081196;28;20436;-56
2021/01/31 02:38:55;;;;;;;20.27;9.70;;;;;;;-1.41;99.63;99479.63;5085781;28;20056;-53
2021/01/31 02:41:28;;;;;;;17.40;8.65;;;;;;;-1.33;99.74;99476.44;5085815;28;20408;-56
2021/01/31 02:43:57;;;;;;;15.93;8.32;;;;;;;-1.28;99.75;99478.69;5081958;28;20036;-54
2021/01/31 02:46:27;;;;;;;22.55;11.25;;;;;;;-1.42;99.82;99475.34;5088075;28;20458;-56
2021/01/31 02:49:01;;;;;;;18.67;10.52;;;;;;;-1.44;99.58;99484.28;5088086;28;20064;-56
2021/01/31 02:51:30;;;;;;;18.50;10.15;;;;;;;-1.47;99.65;99476.66;5076992;28;20051;-55
2021/01/31 02:54:03;;;;;;;24.95;11.93;;;;;;;-1.51;99.42;99478.69;5080771;28;20047;-56
2021/01/31 02:56:35;;;;;;;21.20;10.07;;;;;;;-1.48;99.72;99472.38;5086312;28;20040;-56
2021/01/31 02:59:06;;;;;;;18.17;9.77;;;;;;;-1.44;99.30;99476.44;5081990;28;20070;-55
2021/01/31 03:01:36;;;;;;;20.35;10.05;;;;;;;-1.58;99.83;99472.25;5080747;28;20042;-55
2021/01/31 03:04:07;;;;;;;22.73;11.40;;;;;;;-1.54;99.39;99485.94;5083579;28;20052;-54
2021/01/31 03:06:39;;;;;;;19.83;10.27;;;;;;;-1.55;99.75;99490.34;5081030;28;20064;-54
2021/01/31 03:09:11;;;;;;;21.20;10.57;;;;;;;-1.66;99.58;99500.78;5081602;28;20044;-56
2021/01/31 03:11:40;;;;;;;20.00;10.90;;;;;;;-1.64;99.91;99502.34;5083699;28;20040;-56
2021/01/31 03:14:11;;;;;;;21.23;11.85;;;;;;;-1.67;99.71;99499.13;5082745;28;20046;-56
2021/01/31 03:16:39;;;;;;;19.42;9.48;;;;;;;-1.67;100.00;99502.59;5080918;28;20043;-56
2021/01/31 03:19:11;;;;;;;19.48;10.93;;;;;;;-1.77;99.87;99502.44;5083864;28;20052;-56
2021/01/31 03:21:39;;;;;;;23.20;10.32;;;;;;;-1.81;100.00;99493.16;5083440;28;20051;-49
2021/01/31 03:24:11;;;;;;;24.50;12.02;;;;;;;-2.02;100.00;99498.22;5076998;28;20562;-54
2021/01/31 03:26:41;;;;;;;22.77;11.93;;;;;;;-2.00;100.00;99493.72;5082044;28;20032;-56
2021/01/31 03:29:08;;;;;;;23.20;12.38;;;;;;;-1.89;100.00;99505.97;5080831;28;20043;-53
2021/01/31 03:31:38;;;;;;;22.85;9.85;;;;;;;-1.87;100.00;99500.63;5080530;28;20040;-55
2021/01/31 03:34:09;;;;;;;21.23;11.00;;;;;;;-1.79;100.00;99504.34;5080271;28;20049;-53
2021/01/31 03:36:40;;;;;;;23.48;12.55;;;;;;;-1.85;100.00;99502.19;5082765;28;20044;-56
2021/01/31 03:39:07;;;;;;;21.95;11.63;;;;;;;-1.86;100.00;99490.03;5083769;28;20968;-54
2021/01/31 03:41:34;;;;;;;26.73;12.30;;;;;;;-1.81;100.00;99493.16;5081548;28;20112;-54
2021/01/31 03:44:00;;;;;;;23.33;10.65;;;;;;;-1.84;100.00;99484.69;5083594;28;20041;-56
2021/01/31 03:46:30;;;;;;;20.05;10.85;;;;;;;-1.85;100.00;99488.28;5082478;28;20036;-52
2021/01/31 03:49:03;;;;;;;26.13;12.68;;;;;;;-1.75;100.00;99490.06;5080514;28;20327;-52
2021/01/31 03:51:31;;;;;;;23.92;12.02;;;;;;;-1.75;100.00;99481.38;5084723;28;20044;-55
2021/01/31 03:53:58;;;;;;;22.50;10.50;;;;;;;-1.82;100.00;99485.44;5075444;28;20040;-55
2021/01/31 03:56:30;;;;;;;22.08;10.93;;;;;;;-1.76;100.00;99480.56;5082092;28;20301;-56
2021/01/31 03:58:59;;;;;;;22.65;11.30;;;;;;;-1.73;100.00;99485.56;5082818;28;20079;-56
2021/01/31 04:01:27;;;;;;;22.13;10.15;;;;;;;-1.78;100.00;99479.84;5079304;28;20036;-56
2021/01/31 04:03:59;;;;;;;22.30;11.30;;;;;;;-1.77;100.00;99476.28;5084856;28;20149;-54
2021/01/31 04:06:28;;;;;;;21.40;10.25;;;;;;;-1.80;100.00;99484.38;5080821;28;20040;-54
2021/01/31 04:08:58;;;;;;;20.70;12.02;;;;;;;-1.88;100.00;99497.19;5083504;28;20046;-54
2021/01/31 04:11:33;;;;;;;25.80;11.70;;;;;;;-1.92;100.00;99495.75;5081494;28;20055;-53
2021/01/31 04:14:10;;;;;;;23.23;11.80;;;;;;;-1.91;100.00;99493.00;5079240;28;20079;-56
2021/01/31 04:16:43;;;;;;;19.67;10.75;;;;;;;-1.95;100.00;99488.97;5083889;28;20301;-54
2021/01/31 04:19:11;;;;;;;19.67;11.25;;;;;;;-1.91;100.00;99482.53;5079816;28;20050;-53
2021/01/31 04:21:38;;;;;;;22.85;12.35;;;;;;;-1.89;100.00;99490.28;5083391;28;20044;-55
2021/01/31 04:24:06;;;;;;;23.23;11.20;;;;;;;-1.90;100.00;99496.44;5076063;28;20055;-55
2021/01/31 04:26:34;;;;;;;18.48;11.05;;;;;;;-1.94;100.00;99493.25;5085132;28;20040;-54
2021/01/31 04:29:01;;;;;;;24.30;12.02;;;;;;;-1.92;100.00;99506.22;5076772;28;20063;-57
2021/01/31 04:31:28;;;;;;;23.25;11.30;;;;;;;-1.94;100.00;99495.03;5077331;28;20045;-55
2021/01/31 04:33:55;;;;;;;26.27;12.77;;;;;;;-2.02;100.00;99500.84;5083054;28;20070;-55
2021/01/31 04:36:23;;;;;;;25.10;12.50;;;;;;;-2.06;100.00;99498.56;5080865;28;20043;-54
2021/01/31 04:38:50;;;;;;;23.08;12.35;;;;;;;-2.11;100.00;99512.81;5085910;28;20118;-56
2021/01/31 04:41:19;;;;;;;24.95;11.05;;;;;;;-2.09;100.00;99521.38;5079827;28;20130;-56
2021/01/31 04:43:48;;;;;;;25.45;12.25;;;;;;;-2.10;100.00;99522.34;5080610;28;20063;-57
2021/01/31 04:46:18;;;;;;;23.67;12.32;;;;;;;-1.99;100.00;99518.91;5077854;28;20040;-54
2021/01/31 04:48:55;;;;;;;24.38;11.95;;;;;;;-2.05;100.00;99519.38;5073444;28;20371;-56
2021/01/31 04:51:29;;;;;;;24.63;12.57;;;;;;;-2.05;100.00;99536.88;5087514;28;20050;-55
2021/01/31 04:54:09;;;;;;;22.73;9.85;;;;;;;-2.15;100.00;99532.31;5076887;28;20090;-55
2021/01/31 04:56:58;;;;;;;24.92;11.68;;;;;;;-2.12;100.00;99537.31;5082874;28;20052;-54
2021/01/31 04:59:29;;;;;;;26.27;13.50;;;;;;;-2.26;100.00;99535.69;5084792;28;20032;-56
2021/01/31 05:02:03;;;;;;;27.65;12.65;;;;;;;-2.28;100.00;99549.88;5080147;28;20052;-55
2021/01/31 05:04:31;;;;;;;20.42;10.35;;;;;;;-2.15;100.00;99553.25;5080229;28;20371;-55
2021/01/31 05:07:03;;;;;;;24.73;13.52;;;;;;;-2.22;100.00;99559.03;5080502;28;20048;-54
2021/01/31 05:09:30;;;;;;;27.38;12.02;;;;;;;-2.18;100.00;99569.16;5081828;28;20036;-54
2021/01/31 05:12:01;;;;;;;27.38;12.80;;;;;;;-2.12;100.00;99557.41;5077114;28;20125;-55
2021/01/31 05:14:37;;;;;;;24.60;12.65;;;;;;;-2.15;100.00;99555.84;5075097;28;20049;-54
2021/01/31 05:17:04;;;;;;;26.35;13.82;;;;;;;-2.15;100.00;99553.25;5086931;28;20032;-55
2021/01/31 05:19:33;;;;;;;25.33;12.32;;;;;;;-2.17;100.00;99554.28;5079853;28;20037;-54
2021/01/31 05:22:00;;;;;;;26.77;13.43;;;;;;;-2.13;100.00;99546.09;5083637;28;20048;-53
2021/01/31 05:24:27;;;;;;;23.60;11.90;;;;;;;-2.16;100.00;99545.50;5077864;28;20047;-54
2021/01/31 05:26:57;;;;;;;22.08;12.60;;;;;;;-2.16;100.00;99540.28;5083618;28;20069;-56
2021/01/31 05:29:29;;;;;;;21.17;10.82;;;;;;;-2.15;100.00;99542.78;5080860;28;20428;-55
2021/01/31 05:31:57;;;;;;;24.38;11.50;;;;;;;-2.19;100.00;99538.72;5076247;28;20051;-54
2021/01/31 05:34:32;;;;;;;26.13;12.02;;;;;;;-2.19;100.00;99543.13;5082414;28;20424;-54
2021/01/31 05:37:01;;;;;;;22.38;12.48;;;;;;;-2.18;100.00;99553.47;5083217;28;20048;-55
2021/01/31 05:39:35;;;;;;;25.92;12.63;;;;;;;-2.17;100.00;99552.53;5085847;28;20075;-51
2021/01/31 05:42:05;;;;;;;24.03;11.97;;;;;;;-2.21;100.00;99552.84;5084149;28;20359;-55
2021/01/31 05:44:33;;;;;;;11.63;5.88;;;;;;;-2.18;100.00;99556.09;5084600;28;20040;-55
2021/01/31 05:47:01;;;;;;;23.77;12.43;;;;;;;-2.17;100.00;99549.91;5080724;28;20048;-53
2021/01/31 05:49:35;;;;;;;30.48;14.35;;;;;;;-2.21;100.00;99547.59;5083467;28;20036;-54
2021/01/31 05:52:03;;;;;;;23.38;12.00;;;;;;;-2.24;100.00;99548.66;5083517;28;20044;-54
2021/01/31 05:54:34;;;;;;;25.08;13.57;;;;;;;-2.32;100.00;99553.66;5078949;28;20036;-52
2021/01/31 05:57:01;;;;;;;23.98;12.57;;;;;;;-2.26;100.00;99555.81;5080835;28;20040;-53
2021/01/31 05:59:39;;;;;;;27.17;13.10;;;;;;;-2.23;100.00;99558.19;5087084;28;20048;-55
2021/01/31 06:02:06;;;;;;;25.88;14.65;;;;;;;-2.29;100.00;99569.09;5080517;28;20051;-54
2021/01/31 06:04:33;;;;;;;27.33;14.70;;;;;;;-2.40;100.00;99567.25;5078863;28;20045;-53
2021/01/31 06:07:05;;;;;;;27.20;12.68;;;;;;;-2.43;100.00;99565.69;5085563;28;20313;-54
2021/01/31 06:09:37;;;;;;;26.73;11.70;;;;;;;-2.37;100.00;99558.38;5080999;28;20057;-54
2021/01/31 06:12:07;;;;;;;27.30;12.93;;;;;;;-2.34;100.00;99558.13;5085218;28;20055;-53
2021/01/31 06:14:35;;;;;;;27.70;13.30;;;;;;;-2.40;100.00;99551.56;5079726;28;20049;-55
2021/01/31 06:17:06;;;;;;;27.00;12.70;;;;;;;-2.38;100.00;99547.06;5084165;28;20432;-54
2021/01/31 06:19:35;;;;;;;26.10;12.43;;;;;;;-2.32;100.00;99554.47;5085228;28;20048;-54
2021/01/31 06:22:04;;;;;;;24.50;11.32;;;;;;;-2.35;100.00;99557.31;5084495;28;20312;-56
2021/01/31 06:24:47;;;;;;;30.58;13.82;;;;;;;-2.35;100.00;99564.31;5087070;28;20043;-54
2021/01/31 06:27:16;;;;;;;23.80;11.10;;;;;;;-2.40;100.00;99574.28;5078884;28;20440;-55
2021/01/31 06:29:47;;;;;;;25.67;11.88;;;;;;;-2.46;100.00;99571.16;5080072;28;20040;-54
2021/01/31 06:32:18;;;;;;;24.33;11.93;;;;;;;-2.40;100.00;99579.50;5082970;28;20052;-51
2021/01/31 06:34:48;;;;;;;25.83;13.15;;;;;;;-2.37;100.00;99576.66;5065970;28;20083;-55
2021/01/31 06:37:28;;;;;;;26.80;13.20;;;;;;;-2.37;100.00;99566.22;5086697;28;20048;-56
2021/01/31 06:40:06;;;;;;;28.60;12.32;;;;;;;-2.39;100.00;99574.16;5080871;28;20041;-55
2021/01/31 06:42:41;;;;;;;30.02;14.13;;;;;;;-2.49;100.00;99587.06;5081814;28;20425;-53
2021/01/31 06:45:19;;;;;;;24.75;11.55;;;;;;;-2.50;100.00;99574.94;5080629;28;20089;-54
2021/01/31 06:47:56;;;;;;;31.98;12.52;;;;;;;-2.48;100.00;99574.81;5084368;28;20040;-54
2021/01/31 06:50:27;;;;;;;25.50;12.88;;;;;;;-2.50;100.00;99584.56;5087945;28;20051;-53
2021/01/31 06:52:58;;;;;;;31.33;15.73;;;;;;;-2.52;100.00;99579.44;5082815;28;20040;-55
2021/01/31 06:55:39;;;;;;;32.35;15.15;;;;;;;-2.54;100.00;99575.25;5080395;28;23562;-55
2021/01/31 06:58:27;;;;;;;26.65;13.20;;;;;;;-2.55;100.00;99582.28;5086506;28;20052;-55
2021/01/31 07:01:15;;;;;;;25.17;13.15;;;;;;;-2.64;100.00;99588.16;5081625;28;20044;-56
2021/01/31 07:04:05;;;;;;;25.55;11.70;;;;;;;-2.59;100.00;99588.66;5081689;28;20081;-55
2021/01/31 07:07:08;;;;;;;22.25;10.98;;;;;;;-2.53;100.00;99580.38;5074909;28;20063;-54
2021/01/31 07:09:49;;;;;;;26.38;12.25;;;;;;;-2.54;100.00;99573.47;5063636;28;20048;-56
2021/01/31 07:12:21;;;;;;;28.15;12.35;;;;;;;-2.48;100.00;99578.28;5080353;28;20344;-55
2021/01/31 07:14:55;;;;;;;16.58;8.00;;;;;;;-2.46;100.00;99576.38;5075796;28;20044;-56
2021/01/31 07:17:27;;;;;;;28.25;14.90;;;;;;;-2.43;100.00;99576.16;5079863;28;20055;-55
2021/01/31 07:19:58;;;;;;;28.80;14.20;;;;;;;-2.49;100.00;99566.16;5081824;28;20043;-55
2021/01/31 07:22:31;;;;;;;30.75;14.52;;;;;;;-2.41;100.00;99565.56;5079467;28;20039;-55
2021/01/31 07:25:02;;;;;;;28.17;14.50;;;;;;;-2.42;100.00;99572.59;5077617;28;20120;-51
2021/01/31 07:27:35;;;;;;;27.08;11.77;;;;;;;-2.32;100.00;99572.78;5082208;28;20071;-54
2021/01/31 07:30:08;;;;;;;25.88;13.27;;;;;;;-2.21;100.00;99579.84;5073128;28;20044;-55
2021/01/31 07:32:53;;;;;;;24.98;13.05;;;;;;;-2.04;100.00;99585.63;5080342;28;20043;-55
2021/01/31 07:35:24;;;;;;;26.92;13.15;;;;;;;-1.98;100.00;99590.41;5080922;28;20044;-55
2021/01/31 07:37:53;;;;;;;26.00;12.45;;;;;;;-1.91;100.00;99591.63;5080802;28;20089;-54
2021/01/31 07:40:21;;;;;;;22.85;11.43;;;;;;;-1.93;100.00;99588.28;5080077;28;20041;-53
2021/01/31 07:42:53;;;;;;;24.35;11.75;;;;;;;-1.91;100.00;99602.09;5078551;28;20039;-55
2021/01/31 07:45:22;;;;;;;24.90;12.73;;;;;;;-1.89;100.00;99602.81;5080287;28;20040;-55
2021/01/31 07:47:49;;;;;;;22.33;11.07;;;;;;;-1.87;100.00;99605.31;5078119;28;20513;-55
2021/01/31 07:50:21;;;;;;;26.38;13.63;;;;;;;-1.86;100.00;99605.19;5082943;28;20052;-55
2021/01/31 07:52:53;;;;;;;25.42;12.82;;;;;;;-1.82;100.00;99606.66;5078591;28;20048;-55
2021/01/31 07:55:32;;;;;;;27.80;13.32;;;;;;;-1.79;100.00;99605.59;5072851;28;20049;-55
2021/01/31 07:58:04;;;;;;;31.00;14.25;;;;;;;-1.74;100.00;99611.34;5079360;28;20116;-57
2021/01/31 08:00:40;;;;;;;28.35;13.82;;;;;;;-1.76;99.89;99613.22;5077539;28;20052;-53
2021/01/31 08:03:20;;;;;;;29.60;13.60;;;;;;;-1.68;99.75;99610.03;5080053;28;20471;-55
2021/01/31 08:05:54;;;;;;;27.58;14.80;;;;;;;-1.64;99.85;99603.63;5080045;28;20040;-54
2021/01/31 08:08:44;;;;;;;30.10;13.82;;;;;;;-1.60;99.79;99616.38;5079350;28;20044;-55
2021/01/31 08:11:27;;;;;;;28.83;11.45;;;;;;;-1.58;99.57;99603.16;5084673;28;20051;-55
2021/01/31 08:13:54;;;;;;;26.02;11.65;;;;;;;-1.59;99.43;99610.19;5073781;28;20420;-57
2021/01/31 08:16:54;;;;;;;31.02;13.57;;;;;;;-1.51;99.37;99604.38;5078325;28;20044;-54
2021/01/31 08:19:31;;;;;;;24.45;12.93;;;;;;;-1.55;99.32;99597.69;5081460;28;20044;-54
2021/01/31 08:22:01;;;;;;;22.95;10.57;;;;;;;-1.49;99.18;99605.09;5079377;28;20060;-54
2021/01/31 08:24:57;;;;;;;22.98;11.88;;;;;;;-1.49;99.18;99596.41;5077328;28;20313;-57
2021/01/31 08:27:49;;;;;;;26.77;11.90;;;;;;;-1.45;98.88;99596.03;5083445;28;20335;-55
2021/01/31 08:30:20;;;;;;;26.95;13.32;;;;;;;-1.36;98.97;99593.69;5076236;28;20143;-54
2021/01/31 08:33:21;;;;;;;23.98;10.35;;;;;;;-1.40;99.06;99586.06;5084239;28;20055;-56
2021/01/31 08:36:01;;;;;;;23.88;12.00;;;;;;;-1.38;98.76;99575.47;5079955;28;20067;-56
2021/01/31 08:38:35;;;;;;;25.08;13.02;;;;;;;-1.35;98.63;99582.25;5079593;28;20094;-56
2021/01/31 08:41:31;;;;;;;25.70;11.75;;;;;;;-1.28;98.48;99583.47;5083553;28;20048;-53
2021/01/31 08:43:59;;;;;;;22.00;10.03;;;;;;;-1.36;97.89;99584.06;5060246;28;20325;-56
2021/01/31 08:46:28;;;;;;;27.92;12.77;;;;;;;-1.32;97.80;99577.63;5080237;28;20710;-55
2021/01/31 08:48:56;;;;;;;25.67;11.93;;;;;;;-1.23;97.86;99584.78;5082463;28;20036;-55
2021/01/31 08:51:26;;;;;;;24.67;12.27;;;;;;;-1.18;98.07;99580.97;5078494;28;20052;-55
2021/01/31 08:54:04;;;;;;;21.65;10.50;;;;;;;-1.21;97.45;99582.03;5081612;28;20171;-53
2021/01/31 08:56:34;;;;;;;23.75;11.05;;;;;;;-1.12;97.07;99583.97;5079948;28;20036;-55
2021/01/31 08:59:01;;;;;;;24.60;13.23;;;;;;;-1.04;97.15;99591.22;5078834;28;20040;-56
2021/01/31 09:01:28;;;;;;;26.83;12.52;;;;;;;-0.99;96.77;99580.38;5077828;28;20084;-55
2021/01/31 09:03:55;;;;;;;27.52;12.98;;;;;;;-1.08;96.75;99574.06;5077406;28;20094;-54
2021/01/31 09:06:24;;;;;;;26.05;12.90;;;;;;;-1.14;96.65;99564.88;5080610;28;20123;-56
2021/01/31 09:08:53;;;;;;;26.98;13.32;;;;;;;-1.07;96.88;99573.13;5079373;28;20458;-56
2021/01/31 09:11:22;;;;;;;28.13;12.25;;;;;;;-1.09;97.02;99564.53;5084107;28;20059;-54
2021/01/31 09:13:49;;;;;;;23.50;10.07;;;;;;;-1.09;97.42;99548.81;5078711;28;20048;-56
2021/01/31 09:16:22;;;;;;;26.90;11.27;;;;;;;-1.09;96.97;99556.66;5081774;28;20052;-55
2021/01/31 09:19:03;;;;;;;23.70;10.77;;;;;;;-1.28;97.14;99546.78;5085207;28;20063;-55
2021/01/31 09:21:32;;;;;;;24.77;10.38;;;;;;;-1.23;97.50;99542.03;5079076;28;20412;-56
2021/01/31 09:24:03;;;;;;;18.95;9.63;;;;;;;-1.24;97.66;99537.75;5082385;28;20043;-55
2021/01/31 09:26:31;;;;;;;28.98;12.93;;;;;;;-1.08;97.59;99538.22;5080947;28;20032;-54
2021/01/31 09:28:59;;;;;;;24.50;12.88;;;;;;;-1.07;97.25;99533.81;5085549;28;20463;-54
2021/01/31 09:31:28;;;;;;;24.35;10.32;;;;;;;-1.08;96.77;99529.50;5082936;28;20051;-55
2021/01/31 09:33:58;;;;;;;22.35;12.00;;;;;;;-0.98;97.40;99533.06;5077639;28;20144;-54
2021/01/31 09:36:26;;;;;;;10.18;6.82;;;;;;;-0.93;96.71;99530.13;5088088;28;20070;-55
2021/01/31 09:38:56;;;;;;;19.42;9.63;;;;;;;-0.92;96.92;99534.38;5082836;28;20032;-56
2021/01/31 09:41:24;;;;;;;30.65;13.02;;;;;;;-0.96;96.73;99536.44;5085383;28;20040;-54
2021/01/31 09:43:58;;;;;;;27.02;13.30;;;;;;;-0.85;97.08;99548.69;5078058;28;20040;-56
2021/01/31 09:46:25;;;;;;;15.43;8.05;;;;;;;-0.87;96.63;99548.78;5081670;28;20496;-54
2021/01/31 09:49:00;;;;;;;19.10;10.70;;;;;;;-0.77;96.41;99551.53;5086742;28;20048;-53
2021/01/31 09:51:28;;;;;;;25.42;12.00;;;;;;;-0.78;96.22;99538.53;5083021;28;20048;-53
2021/01/31 09:53:55;;;;;;;20.95;11.02;;;;;;;-0.86;96.54;99536.53;5080855;28;20083;-53
2021/01/31 09:56:38;;;;;;;27.15;12.75;;;;;;;-0.68;96.88;99549.13;5073134;28;20343;-55
2021/01/31 09:59:21;;;;;;;25.08;13.93;;;;;;;-0.58;96.89;99539.56;5082504;28;20097;-54
2021/01/31 10:01:49;;;;;;;26.45;12.88;;;;;;;-0.57;96.20;99530.75;5067105;28;20029;-53
2021/01/31 10:04:21;;;;;;;24.67;11.70;;;;;;;-0.58;95.90;99532.56;5076820;28;20059;-53
2021/01/31 10:06:49;;;;;;;27.05;12.95;;;;;;;-0.30;96.11;99534.75;5087606;28;20036;-53
2021/01/31 10:09:29;;;;;;;30.63;13.27;;;;;;;-0.18;95.63;99533.75;5080045;28;20067;-54
2021/01/31 10:12:29;;;;;;;26.38;13.30;;;;;;;-0.09;95.97;99529.53;5078101;28;20047;-52
2021/01/31 10:14:58;;;;;;;23.23;11.68;;;;;;;-0.16;94.97;99517.88;5076663;28;20052;-52
2021/01/31 10:17:38;;;;;;;25.25;11.85;;;;;;;-0.21;94.30;99524.31;5081032;28;20051;-53
2021/01/31 10:20:24;;;;;;;21.52;12.02;;;;;;;0.17;94.66;99522.97;5079973;28;20041;-53
2021/01/31 10:22:52;;;;;;;20.80;10.27;;;;;;;-0.03;93.83;99519.38;5071961;28;20055;-53
2021/01/31 10:25:19;;;;;;;22.60;11.85;;;;;;;-0.19;94.06;99526.81;5079473;28;20048;-55
2021/01/31 10:27:48;;;;;;;23.75;11.18;;;;;;;-0.03;94.42;99516.75;5087360;28;20442;-54
2021/01/31 10:30:22;;;;;;;26.33;10.88;;;;;;;-0.13;94.81;99513.19;5075222;28;20036;-54
2021/01/31 10:32:49;;;;;;;20.98;10.52;;;;;;;-0.11;94.61;99508.66;5082233;28;20036;-54
2021/01/31 10:35:30;;;;;;;22.65;12.85;;;;;;;0.07;95.32;99513.34;5074327;28;20047;-52
2021/01/31 10:38:01;;;;;;;23.20;11.60;;;;;;;-0.10;94.97;99509.47;5078699;28;20079;-54
2021/01/31 10:40:28;;;;;;;22.30;11.13;;;;;;;0.01;95.33;99508.59;5086901;28;20063;-54
2021/01/31 10:43:09;;;;;;;24.48;10.60;;;;;;;0.08;95.29;99510.59;5080667;28;20032;-53
2021/01/31 10:45:38;;;;;;;22.60;12.50;;;;;;;0.25;95.38;99498.66;5081593;28;20058;-51
2021/01/31 10:48:05;;;;;;;20.48;10.98;;;;;;;0.30;94.98;99493.88;5080383;28;20044;-55
2021/01/31 10:50:32;;;;;;;23.15;12.15;;;;;;;0.15;94.73;99495.16;5081025;28;20039;-54
2021/01/31 10:52:59;;;;;;;25.58;13.20;;;;;;;0.12;94.98;99482.28;5082297;28;20052;-52
2021/01/31 10:55:26;;;;;;;22.42;10.95;;;;;;;0.05;95.63;99479.34;5075232;28;20040;-54
2021/01/31 10:57:53;;;;;;;29.23;14.27;;;;;;;0.05;95.72;99475.91;5080974;28;20059;-52
2021/01/31 11:00:21;;;;;;;26.33;12.50;;;;;;;0.23;95.71;99470.88;5081965;28;20043;-54
2021/01/31 11:02:48;;;;;;;26.65;11.88;;;;;;;0.39;95.75;99473.06;5078205;28;20304;-55
2021/01/31 11:05:16;;;;;;;28.33;12.77;;;;;;;0.40;95.56;99470.28;5078125;28;20036;-52
2021/01/31 11:07:43;;;;;;;24.70;10.90;;;;;;;0.36;95.45;99457.56;5084144;28;20040;-55
2021/01/31 11:10:11;;;;;;;27.88;12.18;;;;;;;0.38;96.14;99464.31;5082387;28;20097;-54
2021/01/31 11:12:39;;;;;;;27.17;12.18;;;;;;;0.53;96.33;99456.13;5079772;28;20048;-53
2021/01/31 11:15:08;;;;;;;24.90;11.35;;;;;;;0.15;95.93;99453.16;5077709;28;20047;-52
2021/01/31 11:17:36;;;;;;;19.70;9.23;;;;;;;0.37;96.24;99443.44;5081171;28;20455;-54
2021/01/31 11:20:05;;;;;;;21.67;11.88;;;;;;;0.20;96.22;99448.34;5081544;28;20523;-52
2021/01/31 11:22:32;;;;;;;28.13;12.32;;;;;;;0.46;96.25;99445.28;5080139;28;20040;-55
2021/01/31 11:24:59;;;;;;;26.77;10.85;;;;;;;0.64;95.87;99438.44;5084244;28;20354;-55
2021/01/31 11:27:26;;;;;;;22.35;10.13;;;;;;;0.55;94.97;99422.66;5083776;28;20035;-56
2021/01/31 11:29:53;;;;;;;28.13;11.88;;;;;;;0.97;95.02;99425.94;5075190;28;20048;-56
2021/01/31 11:32:20;;;;;;;28.67;12.98;;;;;;;1.07;94.42;99422.53;5082400;28;20343;-51
2021/01/31 11:34:47;;;;;;;18.73;9.38;;;;;;;0.96;94.24;99419.03;5074993;28;20043;-54
2021/01/31 11:37:14;;;;;;;17.20;8.20;;;;;;;0.86;93.81;99420.81;5084145;28;20454;-52